createdAt,value
2018-01-12T00:00:20.784Z,99799.76
2018-01-12T00:02:49.455Z,99801.84
2018-01-12T00:05:17.944Z,99800.80
2018-01-12T00:07:46.670Z,99805.03
2018-01-12T00:10:16.203Z,99803.86
2018-01-12T00:12:44.696Z,99807.81
2018-01-12T00:15:13.947Z,99810.13
2018-01-12T00:17:42.487Z,99817.50
2018-01-12T00:20:10.975Z,99815.30
2018-01-12T00:22:39.463Z,99815.05
2018-01-12T00:25:08.492Z,99820.22
2018-01-12T00:27:36.982Z,99819.92
2018-01-12T00:30:05.655Z,99818.61
2018-01-12T00:32:34.220Z,99820.90
2018-01-12T00:35:02.838Z,99823.52
2018-01-12T00:37:31.330Z,99831.02
2018-01-12T00:40:00.091Z,99818.84
2018-01-12T00:42:28.789Z,99820.70
2018-01-12T00:44:57.464Z,99828.23
2018-01-12T00:47:26.283Z,99825.86
2018-01-12T00:49:54.807Z,99836.20
2018-01-12T00:52:23.520Z,99836.23
2018-01-12T00:54:52.141Z,99838.82
2018-01-12T00:57:21.545Z,99839.75
2018-01-12T00:59:50.056Z,99844.34
2018-01-12T01:02:18.599Z,99842.88
2018-01-12T01:04:47.298Z,99840.82
2018-01-12T01:07:16.765Z,99841.87
2018-01-12T01:09:45.291Z,99838.22
2018-01-12T01:12:14.549Z,99843.26
2018-01-12T01:14:43.129Z,99835.03
2018-01-12T01:17:11.867Z,99847.71
2018-01-12T01:19:41.124Z,99846.03
2018-01-12T01:22:09.802Z,99845.95
2018-01-12T01:24:38.344Z,99845.60
2018-01-12T01:27:06.841Z,99839.29
2018-01-12T01:29:35.552Z,99841.89
2018-01-12T01:32:04.340Z,99842.04
2018-01-12T01:34:32.831Z,99846.94
2018-01-12T01:37:01.510Z,99843.34
2018-01-12T01:39:30.052Z,99834.88
2018-01-12T01:41:58.547Z,99844.27
2018-01-12T01:44:27.209Z,99847.95
2018-01-12T01:46:56.696Z,99845.61
2018-01-12T01:49:26.120Z,99844.97
2018-01-12T01:51:55.367Z,99836.84
2018-01-12T01:54:24.156Z,99841.41
2018-01-12T01:56:53.003Z,99840.11
2018-01-12T01:59:22.089Z,99841.94
2018-01-12T02:04:26.879Z,99841.55
2018-01-12T02:06:55.410Z,99842.09
2018-01-12T02:09:24.761Z,99837.55
2018-01-12T02:11:53.557Z,99835.77
2018-01-12T02:21:07.887Z,99841.31
2018-01-12T02:23:37.142Z,99844.83
2018-01-12T02:26:06.410Z,99847.04
2018-01-12T02:28:35.262Z,99848.09
2018-01-12T02:31:04.028Z,99851.53
2018-01-12T02:33:32.518Z,99855.21
2018-01-12T02:36:01.111Z,99860.45
2018-01-12T02:38:29.604Z,99858.31
2018-01-12T02:40:58.851Z,99861.72
2018-01-12T02:43:27.412Z,99864.39
2018-01-12T02:45:56.008Z,99872.16
2018-01-12T02:48:24.682Z,99879.52
2018-01-12T02:50:53.438Z,99880.91
2018-01-12T02:53:22.093Z,99886.13
2018-01-12T02:55:50.778Z,99888.84
2018-01-12T02:58:19.500Z,99890.27
2018-01-12T03:00:47.983Z,99888.66
2018-01-12T03:03:17.238Z,99890.52
2018-01-12T03:05:45.802Z,99887.37
2018-01-12T03:08:14.515Z,99879.16
2018-01-12T03:10:43.767Z,99882.94
2018-01-12T03:13:13.360Z,99884.67
2018-01-12T03:15:42.832Z,99878.47
2018-01-12T03:18:11.323Z,99875.03
2018-01-12T03:20:39.855Z,99877.20
2018-01-12T03:23:08.582Z,99879.86
2018-01-12T03:25:37.219Z,99876.91
2018-01-12T03:28:06.543Z,99883.33
2018-01-12T03:30:35.024Z,99890.80
2018-01-12T03:33:03.623Z,99893.30
2018-01-12T03:35:32.451Z,99887.91
2018-01-12T03:38:01.816Z,99889.42
2018-01-12T03:40:30.303Z,99892.41
2018-01-12T03:42:59.188Z,99888.81
2018-01-12T03:45:27.667Z,99894.23
2018-01-12T03:47:56.251Z,99899.67
2018-01-12T03:50:25.401Z,99907.08
2018-01-12T03:52:54.853Z,99903.38
2018-01-12T03:55:23.538Z,99906.51
2018-01-12T03:57:52.354Z,99916.68
2018-01-12T04:00:21.011Z,99924.13
2018-01-12T04:02:49.495Z,99927.92
2018-01-12T04:05:18.029Z,99936.66
2018-01-12T04:07:47.280Z,99937.65
2018-01-12T04:10:15.918Z,99940.34
2018-01-12T04:12:44.911Z,99948.94
2018-01-12T04:15:13.391Z,99948.26
2018-01-12T04:17:42.639Z,99951.91
2018-01-12T04:20:11.491Z,99955.30
2018-01-12T04:22:39.975Z,99953.85
2018-01-12T04:25:08.455Z,99958.14
2018-01-12T04:27:36.983Z,99961.36
2018-01-12T04:30:05.495Z,99968.80
2018-01-12T04:32:34.797Z,99977.94
2018-01-12T04:35:04.498Z,99968.91
2018-01-12T04:37:33.963Z,99979.27
2018-01-12T04:40:02.452Z,99975.95
2018-01-12T04:42:30.980Z,99974.95
2018-01-12T04:45:00.226Z,99983.02
2018-01-12T04:47:28.711Z,99981.04
2018-01-12T04:49:57.423Z,99982.16
2018-01-12T04:52:25.910Z,99981.66
2018-01-12T04:54:55.378Z,99981.72
2018-01-12T04:57:24.108Z,99981.56
2018-01-12T04:59:53.528Z,99978.36
2018-01-12T05:02:22.780Z,99979.98
2018-01-12T05:04:51.571Z,99979.14
2018-01-12T05:07:20.061Z,99978.80
2018-01-12T05:09:49.028Z,99977.20
2018-01-12T05:12:17.572Z,99977.51
2018-01-12T05:14:46.061Z,99981.54
2018-01-12T05:17:14.559Z,99979.70
2018-01-12T05:19:43.468Z,99985.36
2018-01-12T05:22:11.957Z,99981.91
2018-01-12T05:24:40.439Z,99994.25
2018-01-12T05:27:09.423Z,99990.53
2018-01-12T05:29:37.911Z,99989.62
2018-01-12T05:32:06.392Z,99996.23
2018-01-12T05:34:34.940Z,99999.39
2018-01-12T05:37:04.103Z,100001.03
2018-01-12T05:39:36.095Z,100008.88
2018-01-12T05:42:05.471Z,100009.98
2018-01-12T05:44:34.727Z,100013.21
2018-01-12T05:47:03.247Z,100017.70
2018-01-12T05:49:33.029Z,100018.31
2018-01-12T05:52:01.519Z,100016.64
2018-01-12T05:54:30.289Z,100025.95
2018-01-12T05:56:59.012Z,100026.73
2018-01-12T05:59:27.823Z,100028.51
2018-01-12T06:02:14.703Z,100025.17
2018-01-12T06:05:01.269Z,100024.11
2018-01-12T06:07:29.804Z,100024.09
2018-01-12T06:09:59.270Z,100026.83
2018-01-12T06:12:27.755Z,100027.08
2018-01-12T06:14:56.543Z,100022.80
2018-01-12T06:17:25.029Z,100025.09
2018-01-12T06:19:53.522Z,100030.09
2018-01-12T06:22:22.241Z,100030.30
2018-01-12T06:24:51.593Z,100041.66
2018-01-12T06:27:20.088Z,100034.41
2018-01-12T06:29:48.624Z,100042.58
2018-01-12T06:32:17.116Z,100054.32
2018-01-12T06:34:45.603Z,100059.08
2018-01-12T06:37:14.134Z,100067.88
2018-01-12T06:39:43.399Z,100075.80
2018-01-12T06:42:11.881Z,100079.80
2018-01-12T06:44:40.441Z,100088.16
2018-01-12T06:47:08.935Z,100095.36
2018-01-12T06:49:37.481Z,100099.22
2018-01-12T06:52:06.968Z,100104.02
2018-01-12T06:54:35.528Z,100109.03
2018-01-12T06:57:05.682Z,100115.33
2018-01-12T06:59:35.183Z,100118.04
2018-01-12T07:02:04.484Z,100129.94
2018-01-12T07:04:36.356Z,100127.77
2018-01-12T07:07:06.324Z,100131.66
2018-01-12T07:09:35.328Z,100127.45
2018-01-12T07:12:09.001Z,100129.61
2018-01-12T07:14:37.662Z,100139.72
2018-01-12T07:17:08.833Z,100134.58
2018-01-12T07:19:39.768Z,100137.45
2018-01-12T07:22:27.739Z,100135.36
2018-01-12T07:24:56.375Z,100140.28
2018-01-12T07:27:24.881Z,100147.30
2018-01-12T07:29:53.492Z,100150.81
2018-01-12T07:32:22.292Z,100156.44
2018-01-12T07:34:51.568Z,100159.27
2018-01-12T07:37:20.063Z,100167.97
2018-01-12T07:39:48.660Z,100168.84
2018-01-12T07:42:17.203Z,100164.48
2018-01-12T07:44:45.751Z,100171.02
2018-01-12T07:47:14.352Z,100173.02
2018-01-12T07:49:42.856Z,100175.41
2018-01-12T07:52:11.356Z,100177.75
2018-01-12T07:54:39.958Z,100176.17
2018-01-12T07:57:08.532Z,100184.31
2018-01-12T07:59:37.499Z,100183.10
2018-01-12T08:02:11.796Z,100179.80
2018-01-12T08:04:40.288Z,100178.77
2018-01-12T08:07:08.782Z,100184.09
2018-01-12T08:09:37.426Z,100191.52
2018-01-12T08:12:06.144Z,100183.96
2018-01-12T08:14:34.726Z,100184.75
2018-01-12T08:17:03.263Z,100186.03
2018-01-12T08:19:32.712Z,100190.99
2018-01-12T08:22:01.397Z,100192.50
2018-01-12T08:24:29.964Z,100198.27
2018-01-12T08:26:58.459Z,100200.91
2018-01-12T08:29:26.947Z,100204.03
2018-01-12T08:31:55.636Z,100204.97
2018-01-12T08:34:24.131Z,100206.03
2018-01-12T08:36:52.851Z,100204.20
2018-01-12T08:39:22.183Z,100198.41
2018-01-12T08:41:50.678Z,100201.47
2018-01-12T08:44:19.179Z,100199.00
2018-01-12T08:46:47.887Z,100197.56
2018-01-12T08:49:17.170Z,100198.18
2018-01-12T08:51:46.427Z,100198.36
2018-01-12T08:54:15.202Z,100200.14
2018-01-12T08:56:43.921Z,100199.23
2018-01-12T08:59:12.435Z,100202.22
2018-01-12T09:01:41.036Z,100204.05
2018-01-12T09:04:10.294Z,100202.56
2018-01-12T09:06:38.973Z,100200.77
2018-01-12T09:09:07.695Z,100205.64
2018-01-12T09:11:36.263Z,100212.64
2018-01-12T09:14:22.669Z,100225.27
2018-01-12T09:16:52.911Z,100213.83
2018-01-12T09:19:46.720Z,100215.74
2018-01-12T09:25:10.768Z,100220.61
2018-01-12T09:27:39.263Z,100223.52
2018-01-12T09:30:08.526Z,100230.27
2018-01-12T09:32:37.155Z,100230.48
2018-01-12T09:35:06.568Z,100232.58
2018-01-12T09:37:41.903Z,100227.08
2018-01-12T09:43:11.793Z,100236.09
2018-01-12T09:45:40.370Z,100228.58
2018-01-12T09:48:36.487Z,100228.47
2018-01-12T09:51:04.998Z,100225.96
2018-01-12T09:53:33.558Z,100219.08
2018-01-12T09:56:02.200Z,100220.20
2018-01-12T09:58:31.764Z,100222.02
2018-01-12T10:01:05.849Z,100223.02
2018-01-12T10:03:34.387Z,100223.59
2018-01-12T10:06:03.704Z,100222.41
2018-01-12T10:08:32.431Z,100226.82
2018-01-12T10:11:00.927Z,100225.98
2018-01-12T10:13:29.419Z,100222.94
2018-01-12T12:12:05.967Z,100246.48
2018-01-12T12:16:24.039Z,100243.96
2018-01-12T12:18:53.535Z,100246.27
2018-01-12T12:21:22.855Z,100252.80
2018-01-12T12:23:51.351Z,100250.64
2018-01-12T12:26:19.958Z,100250.28
2018-01-12T12:28:48.509Z,100249.26
2018-01-12T12:31:17.066Z,100246.20
2018-01-12T12:33:46.569Z,100251.82
2018-01-12T12:36:15.862Z,100251.72
2018-01-12T12:38:44.438Z,100257.97
2018-01-12T12:41:14.068Z,100254.71
2018-01-12T12:43:43.380Z,100256.98
2018-01-12T12:46:11.955Z,100263.83
2018-01-12T12:48:41.279Z,100265.18
2018-01-12T12:51:09.779Z,100264.66
2018-01-12T12:53:38.327Z,100267.73
2018-01-12T12:56:06.961Z,100272.95
2018-01-12T12:58:35.515Z,100276.06
2018-01-12T13:01:04.050Z,100273.05
2018-01-12T13:03:32.688Z,100274.49
2018-01-12T13:06:01.192Z,100280.91
2018-01-12T13:08:29.688Z,100278.80
2018-01-12T13:10:58.483Z,100278.61
2018-01-12T13:13:27.035Z,100292.86
2018-01-12T13:15:55.527Z,100293.97
2018-01-12T13:18:24.511Z,100288.90
2018-01-12T13:20:53.067Z,100298.77
2018-01-12T13:23:21.560Z,100302.70
2018-01-12T13:25:50.184Z,100301.77
2018-01-12T13:28:18.673Z,100296.31
2018-01-12T13:30:47.938Z,100304.97
2018-01-12T13:33:16.546Z,100305.09
2018-01-12T13:35:45.049Z,100310.05
2018-01-12T13:38:14.315Z,100316.81
2018-01-12T13:40:42.863Z,100316.41
2018-01-12T13:43:11.437Z,100325.83
2018-01-12T13:45:40.055Z,100323.78
2018-01-12T13:48:08.655Z,100325.39
2018-01-12T13:50:37.632Z,100332.40
2018-01-12T13:53:06.185Z,100327.33
2018-01-12T13:55:35.004Z,100329.61
2018-01-12T13:58:03.501Z,100331.23
2018-01-12T14:00:32.034Z,100331.45
2018-01-12T14:03:00.662Z,100327.23
2018-01-12T14:05:29.171Z,100332.10
2018-01-12T14:07:58.445Z,100334.31
2018-01-12T14:10:27.057Z,100334.38
2018-01-12T14:12:56.926Z,100334.25
2018-01-12T14:15:25.512Z,100338.07
2018-01-12T14:17:54.060Z,100345.25
2018-01-12T14:20:22.547Z,100348.61
2018-01-12T14:22:51.096Z,100346.45
2018-01-12T14:25:20.603Z,100349.59
2018-01-12T14:27:49.872Z,100352.30
2018-01-12T14:30:18.446Z,100354.87
2018-01-12T14:32:47.860Z,100359.92
2018-01-12T14:35:16.383Z,100366.98
2018-01-12T14:37:45.652Z,100374.89
2018-01-12T14:40:14.283Z,100378.95
2018-01-12T14:42:42.783Z,100385.64
2018-01-12T14:45:11.278Z,100384.98
2018-01-12T14:47:40.020Z,100394.93
2018-01-12T14:50:09.286Z,100389.14
2018-01-12T14:52:37.855Z,100393.67
2018-01-12T14:55:06.389Z,100400.08
2018-01-12T14:57:35.650Z,100404.92
2018-01-12T15:00:04.235Z,100407.36
2018-01-12T15:02:33.119Z,100405.76
2018-01-12T15:05:01.638Z,100408.19
2018-01-12T15:07:30.900Z,100415.62
2018-01-12T15:09:59.616Z,100417.98
2018-01-12T15:12:28.888Z,100422.75
2018-01-12T15:14:57.452Z,100422.12
2018-01-12T15:17:26.083Z,100427.17
2018-01-12T15:19:55.339Z,100438.55
2018-01-12T15:22:23.843Z,100433.75
2018-01-12T15:24:52.421Z,100438.23
2018-01-12T15:27:20.941Z,100443.47
2018-01-12T15:29:49.435Z,100443.29
2018-01-12T15:32:18.028Z,100447.48
2018-01-12T15:34:46.525Z,100456.19
2018-01-12T15:37:15.019Z,100447.19
2018-01-12T15:39:43.834Z,100454.52
2018-01-12T15:42:12.387Z,100457.66
2018-01-12T15:44:40.888Z,100465.67
2018-01-12T15:47:09.576Z,100469.14
2018-01-12T15:49:38.079Z,100471.02
2018-01-12T15:52:07.409Z,100470.33
2018-01-12T15:54:35.975Z,100471.78
2018-01-12T15:57:05.311Z,100477.69
2018-01-12T15:59:33.812Z,100481.03
2018-01-12T16:02:03.647Z,100485.28
2018-01-12T16:04:32.143Z,100478.55
2018-01-12T16:07:01.440Z,100483.02
2018-01-12T16:09:31.108Z,100484.16
2018-01-12T16:11:59.706Z,100489.00
2018-01-12T16:14:28.212Z,100487.25
2018-01-12T16:16:57.619Z,100497.69
2018-01-12T16:19:26.871Z,100507.63
2018-01-12T16:21:55.367Z,100504.24
2018-01-12T16:24:24.063Z,100503.39
2018-01-12T16:26:52.572Z,100500.02
2018-01-12T16:29:21.832Z,100504.24
2018-01-12T16:31:50.604Z,100506.55
2018-01-12T16:34:19.101Z,100509.34
2018-01-12T16:36:47.607Z,100507.41
2018-01-12T16:39:17.472Z,100512.52
2018-01-12T16:41:45.532Z,100514.47
2018-01-12T16:44:14.036Z,100514.87
2018-01-12T16:46:42.579Z,100511.95
2018-01-12T16:49:11.083Z,100512.14
2018-01-12T16:51:39.598Z,100515.61
2018-01-12T16:54:08.197Z,100515.97
2018-01-12T16:56:36.707Z,100520.48
2018-01-12T16:59:05.275Z,100523.73
2018-01-12T17:01:34.984Z,100520.97
2018-01-12T17:04:04.357Z,100524.00
2018-01-12T17:06:32.870Z,100529.66
2018-01-12T17:09:02.188Z,100522.42
2018-01-12T17:11:30.682Z,100526.61
2018-01-12T17:13:59.189Z,100529.16
2018-01-12T17:16:27.921Z,100532.01
2018-01-12T17:18:57.194Z,100529.21
2018-01-12T17:21:25.700Z,100530.81
2018-01-12T17:23:55.195Z,100536.27
2018-01-12T17:26:23.708Z,100541.69
2018-01-12T17:28:52.277Z,100536.55
2018-01-12T17:31:21.613Z,100535.44
2018-01-12T17:33:50.169Z,100541.20
2018-01-12T17:36:19.456Z,100546.30
2018-01-12T17:38:48.985Z,100540.39
2018-01-12T17:41:17.481Z,100545.09
2018-01-12T17:43:45.984Z,100545.70
2018-01-12T17:46:14.713Z,100548.20
2018-01-12T17:48:44.038Z,100552.55
2018-01-12T17:51:12.551Z,100557.01
2018-01-12T17:53:41.151Z,100558.72
2018-01-12T17:56:09.659Z,100559.48
2018-01-12T17:58:38.925Z,100558.63
2018-01-12T18:01:07.486Z,100561.45
2018-01-12T18:03:36.062Z,100559.30
2018-01-12T18:06:04.623Z,100565.19
2018-01-12T18:08:34.004Z,100569.73
2018-01-12T18:11:03.347Z,100574.06
2018-01-12T18:13:31.920Z,100576.61
2018-01-12T18:16:00.741Z,100585.28
2018-01-12T18:18:29.245Z,100581.86
2018-01-12T18:20:57.810Z,100584.00
2018-01-12T18:23:26.354Z,100587.36
2018-01-12T18:25:54.851Z,100592.98
2018-01-12T18:28:23.344Z,100594.89
2018-01-12T18:30:51.983Z,100596.97
2018-01-12T18:33:21.300Z,100591.87
2018-01-12T18:35:49.900Z,100595.74
2018-01-12T18:38:19.598Z,100596.50
2018-01-12T18:40:48.106Z,100596.97
2018-01-12T18:43:16.598Z,100596.56
2018-01-12T18:45:45.300Z,100603.09
2018-01-12T18:48:13.780Z,100602.48
2018-01-12T18:50:42.283Z,100606.51
2018-01-12T18:53:11.841Z,100604.42
2018-01-12T18:55:40.340Z,100603.47
2018-01-12T18:58:09.523Z,100603.75
2018-01-12T19:00:39.057Z,100603.88
2018-01-12T19:03:07.595Z,100607.19
2018-01-12T19:05:36.085Z,100612.12
2018-01-12T19:08:05.086Z,100610.41
2018-01-12T19:10:33.580Z,100613.95
2018-01-12T19:13:02.207Z,100618.06
2018-01-12T19:15:31.659Z,100620.59
2018-01-12T19:18:00.345Z,100620.60
2018-01-12T19:20:28.989Z,100624.16
2018-01-12T19:22:57.879Z,100629.02
2018-01-12T19:25:27.140Z,100628.38
2018-01-12T19:27:55.647Z,100630.17
2018-01-12T19:30:24.496Z,100629.71
2018-01-12T19:32:53.767Z,100629.21
2018-01-12T19:35:22.320Z,100634.27
2018-01-12T19:37:51.087Z,100631.09
2018-01-12T19:40:20.352Z,100638.25
2018-01-12T19:42:48.864Z,100646.02
2018-01-12T19:45:18.341Z,100648.35
2018-01-12T19:47:46.847Z,100655.53
2018-01-12T19:50:16.204Z,100657.72
2018-01-12T19:52:44.888Z,100662.77
2018-01-12T19:55:13.384Z,100665.64
2018-01-12T19:57:41.891Z,100659.70
2018-01-12T20:00:11.203Z,100652.81
2018-01-12T20:02:40.621Z,100654.28
2018-01-12T20:05:09.111Z,100657.28
2018-01-12T20:07:37.924Z,100660.11
2018-01-12T20:10:07.219Z,100661.91
2018-01-12T20:12:35.773Z,100662.38
2018-01-12T20:15:04.597Z,100664.28
2018-01-12T20:17:33.098Z,100661.31
2018-01-12T20:20:01.592Z,100661.47
2018-01-12T20:22:30.170Z,100659.19
2018-01-12T20:24:58.660Z,100657.77
2018-01-12T20:27:27.142Z,100663.06
2018-01-12T20:29:55.881Z,100660.37
2018-01-12T20:32:24.375Z,100665.95
2018-01-12T20:34:53.062Z,100671.52
2018-01-12T20:37:21.783Z,100671.15
2018-01-12T20:39:50.311Z,100676.43
2018-01-12T20:42:19.304Z,100677.97
2018-01-12T20:44:48.039Z,100681.84
2018-01-12T20:47:16.901Z,100679.19
2018-01-12T20:49:45.619Z,100685.80
2018-01-12T20:52:15.591Z,100684.65
2018-01-12T20:54:44.083Z,100684.89
2018-01-12T20:57:12.750Z,100689.65
2018-01-12T20:59:42.246Z,100693.34
2018-01-12T21:02:11.536Z,100688.00
2018-01-12T21:04:41.547Z,100695.17
2018-01-12T21:07:10.570Z,100699.68
2018-01-12T21:09:40.021Z,100707.63
2018-01-12T21:12:08.509Z,100709.80
2018-01-12T21:14:37.467Z,100717.47
2018-01-12T21:17:05.970Z,100712.22
2018-01-12T21:19:34.463Z,100718.63
2018-01-12T21:22:03.184Z,100723.02
2018-01-12T21:24:32.544Z,100726.41
2018-01-12T21:27:01.035Z,100730.15
2018-01-12T21:29:30.222Z,100727.28
2018-01-12T21:31:58.722Z,100734.67
2018-01-12T21:34:27.215Z,100729.59
2018-01-12T21:36:57.509Z,100732.20
2018-01-12T21:39:26.011Z,100735.39
2018-01-12T21:41:54.519Z,100728.73
2018-01-12T21:44:23.091Z,100731.30
2018-01-12T21:46:52.507Z,100729.19
2018-01-12T21:49:21.970Z,100732.06
2018-01-12T21:51:50.687Z,100720.80
2018-01-12T21:54:19.955Z,100727.41
2018-01-12T21:56:48.522Z,100731.83
2018-01-12T21:59:17.424Z,100732.37
2018-01-12T22:01:45.912Z,100733.92
2018-01-12T22:04:14.404Z,100733.91
2018-01-12T22:06:42.963Z,100727.77
2018-01-12T22:09:11.553Z,100726.97
2018-01-12T22:11:40.240Z,100723.88
2018-01-12T22:14:09.174Z,100725.88
2018-01-12T22:16:38.635Z,100727.19
2018-01-12T22:19:07.284Z,100725.88
2018-01-12T22:21:36.004Z,100734.65
2018-01-12T22:24:04.520Z,100723.31
2018-01-12T22:26:34.351Z,100716.87
2018-01-12T22:29:03.904Z,100718.27
2018-01-12T22:31:32.548Z,100718.84
2018-01-12T22:34:01.275Z,100717.86
2018-01-12T22:36:29.843Z,100711.74
2018-01-12T22:38:58.548Z,100721.63
2018-01-12T22:41:27.038Z,100721.38
2018-01-12T22:43:55.743Z,100721.62
2018-01-12T22:46:24.396Z,100715.20
2018-01-12T22:48:52.887Z,100717.23
2018-01-12T22:51:21.455Z,100714.86
2018-01-12T22:53:49.951Z,100717.63
2018-01-12T22:56:18.524Z,100712.88
2018-01-12T22:58:47.454Z,100703.09
2018-01-12T23:01:17.449Z,100714.43
2018-01-12T23:03:46.938Z,100714.69
2018-01-12T23:06:15.427Z,100710.84
2018-01-12T23:08:43.913Z,100699.80
2018-01-12T23:11:12.800Z,100701.48
2018-01-12T23:13:41.287Z,100707.06
2018-01-12T23:16:09.968Z,100714.09
2018-01-12T23:18:38.651Z,100717.91
2018-01-12T23:21:07.154Z,100708.96
2018-01-12T23:23:36.420Z,100707.16
2018-01-12T23:26:05.214Z,100710.81
2018-01-12T23:28:33.698Z,100710.77
2018-01-12T23:31:02.182Z,100712.81
2018-01-12T23:33:31.111Z,100710.47
2018-01-12T23:36:00.410Z,100710.02
2018-01-12T23:38:29.872Z,100711.28
2018-01-12T23:40:58.811Z,100705.52
2018-01-12T23:43:28.277Z,100703.57
2018-01-12T23:45:56.774Z,100702.83
2018-01-12T23:48:25.596Z,100702.98
2018-01-12T23:50:55.035Z,100701.70
2018-01-12T23:53:23.527Z,100709.20
2018-01-12T23:55:52.318Z,100716.45
2018-01-12T23:58:20.859Z,100710.43
